sensor_id;sensor_type;location;lat;lon;timestamp;P1;durP1;ratioP1;P2;durP2;ratioP2
47365;SDS011;33105;47.964;7.982;2023-09-12T00:02:56;12.35;;;6.10;;
47365;SDS011;33105;47.964;7.982;2023-09-12T00:05:59;12.93;;;5.75;;
47365;SDS011;33105;47.964;7.982;2023-09-12T00:09:01;8.35;;;5.78;;
47365;SDS011;33105;47.964;7.982;2023-09-12T00:12:06;8.18;;;5.88;;
47365;SDS011;33105;47.964;7.982;2023-09-12T00:15:07;8.00;;;6.15;;
47365;SDS011;33105;47.964;7.982;2023-09-12T00:18:09;6.55;;;5.90;;
47365;SDS011;33105;47.964;7.982;2023-09-12T00:21:10;7.15;;;5.82;;
47365;SDS011;33105;47.964;7.982;2023-09-12T00:24:11;7.93;;;5.75;;
47365;SDS011;33105;47.964;7.982;2023-09-12T00:27:13;9.57;;;6.07;;
47365;SDS011;33105;47.964;7.982;2023-09-12T00:30:14;8.77;;;6.05;;
47365;SDS011;33105;47.964;7.982;2023-09-12T00:33:15;6.85;;;5.95;;
47365;SDS011;33105;47.964;7.982;2023-09-12T00:36:17;6.60;;;5.57;;
47365;SDS011;33105;47.964;7.982;2023-09-12T00:39:18;9.55;;;6.00;;
47365;SDS011;33105;47.964;7.982;2023-09-12T00:42:25;8.38;;;6.20;;
47365;SDS011;33105;47.964;7.982;2023-09-12T00:45:27;12.43;;;6.05;;
47365;SDS011;33105;47.964;7.982;2023-09-12T00:48:29;12.20;;;6.47;;
47365;SDS011;33105;47.964;7.982;2023-09-12T00:51:30;10.68;;;6.22;;
47365;SDS011;33105;47.964;7.982;2023-09-12T00:54:33;9.43;;;6.35;;
47365;SDS011;33105;47.964;7.982;2023-09-12T00:57:35;8.10;;;6.13;;
47365;SDS011;33105;47.964;7.982;2023-09-12T01:00:37;7.75;;;6.38;;
47365;SDS011;33105;47.964;7.982;2023-09-12T01:03:38;9.43;;;6.60;;
47365;SDS011;33105;47.964;7.982;2023-09-12T01:06:39;9.45;;;6.32;;
47365;SDS011;33105;47.964;7.982;2023-09-12T01:09:41;8.25;;;6.00;;
47365;SDS011;33105;47.964;7.982;2023-09-12T01:12:42;9.40;;;7.10;;
47365;SDS011;33105;47.964;7.982;2023-09-12T01:15:43;8.40;;;6.53;;
47365;SDS011;33105;47.964;7.982;2023-09-12T01:18:45;8.07;;;5.75;;
47365;SDS011;33105;47.964;7.982;2023-09-12T01:28:26;8.35;;;6.57;;
47365;SDS011;33105;47.964;7.982;2023-09-12T01:31:32;10.80;;;5.75;;
47365;SDS011;33105;47.964;7.982;2023-09-12T01:34:34;10.82;;;6.65;;
47365;SDS011;33105;47.964;7.982;2023-09-12T01:37:36;7.65;;;6.15;;
47365;SDS011;33105;47.964;7.982;2023-09-12T01:40:39;8.65;;;6.35;;
47365;SDS011;33105;47.964;7.982;2023-09-12T01:46:49;9.45;;;6.25;;
47365;SDS011;33105;47.964;7.982;2023-09-12T01:49:55;12.35;;;6.68;;
47365;SDS011;33105;47.964;7.982;2023-09-12T01:52:58;10.25;;;6.55;;
47365;SDS011;33105;47.964;7.982;2023-09-12T01:56:00;9.95;;;6.53;;
47365;SDS011;33105;47.964;7.982;2023-09-12T01:59:02;7.50;;;5.93;;
47365;SDS011;33105;47.964;7.982;2023-09-12T02:02:04;9.57;;;6.25;;
47365;SDS011;33105;47.964;7.982;2023-09-12T02:08:19;6.57;;;5.63;;
47365;SDS011;33105;47.964;7.982;2023-09-12T02:11:22;9.68;;;6.25;;
47365;SDS011;33105;47.964;7.982;2023-09-12T02:14:23;8.50;;;6.00;;
47365;SDS011;33105;47.964;7.982;2023-09-12T02:17:25;9.65;;;6.30;;
47365;SDS011;33105;47.964;7.982;2023-09-12T02:20:26;7.28;;;6.45;;
47365;SDS011;33105;47.964;7.982;2023-09-12T02:23:28;6.43;;;5.75;;
47365;SDS011;33105;47.964;7.982;2023-09-12T02:26:32;7.35;;;6.15;;
47365;SDS011;33105;47.964;7.982;2023-09-12T02:29:38;7.25;;;5.78;;
47365;SDS011;33105;47.964;7.982;2023-09-12T02:32:41;7.53;;;6.40;;
47365;SDS011;33105;47.964;7.982;2023-09-12T02:35:43;8.60;;;6.15;;
47365;SDS011;33105;47.964;7.982;2023-09-12T02:38:45;8.98;;;6.07;;
47365;SDS011;33105;47.964;7.982;2023-09-12T02:41:47;12.82;;;6.38;;
47365;SDS011;33105;47.964;7.982;2023-09-12T02:44:48;7.82;;;6.03;;
47365;SDS011;33105;47.964;7.982;2023-09-12T02:47:50;8.82;;;6.13;;
47365;SDS011;33105;47.964;7.982;2023-09-12T02:50:51;10.32;;;7.32;;
47365;SDS011;33105;47.964;7.982;2023-09-12T02:53:53;11.80;;;6.43;;
47365;SDS011;33105;47.964;7.982;2023-09-12T02:56:54;7.18;;;6.10;;
47365;SDS011;33105;47.964;7.982;2023-09-12T02:59:56;6.95;;;6.25;;
47365;SDS011;33105;47.964;7.982;2023-09-12T03:02:58;6.70;;;6.00;;
47365;SDS011;33105;47.964;7.982;2023-09-12T03:05:59;10.98;;;6.30;;
47365;SDS011;33105;47.964;7.982;2023-09-12T03:09:02;7.07;;;6.03;;
47365;SDS011;33105;47.964;7.982;2023-09-12T03:12:04;8.35;;;6.10;;
47365;SDS011;33105;47.964;7.982;2023-09-12T03:15:06;6.82;;;6.13;;
47365;SDS011;33105;47.964;7.982;2023-09-12T03:18:09;10.80;;;6.50;;
47365;SDS011;33105;47.964;7.982;2023-09-12T03:21:11;8.35;;;6.28;;
47365;SDS011;33105;47.964;7.982;2023-09-12T03:24:13;7.68;;;5.70;;
47365;SDS011;33105;47.964;7.982;2023-09-12T03:27:15;8.35;;;6.15;;
47365;SDS011;33105;47.964;7.982;2023-09-12T03:30:16;10.82;;;6.82;;
47365;SDS011;33105;47.964;7.982;2023-09-12T03:33:17;7.32;;;5.75;;
47365;SDS011;33105;47.964;7.982;2023-09-12T03:36:19;8.23;;;6.55;;
47365;SDS011;33105;47.964;7.982;2023-09-12T03:39:21;9.30;;;6.47;;
47365;SDS011;33105;47.964;7.982;2023-09-12T03:42:22;8.07;;;7.00;;
47365;SDS011;33105;47.964;7.982;2023-09-12T03:45:24;9.05;;;6.60;;
47365;SDS011;33105;47.964;7.982;2023-09-12T03:48:26;10.18;;;6.65;;
47365;SDS011;33105;47.964;7.982;2023-09-12T03:51:27;8.98;;;6.53;;
47365;SDS011;33105;47.964;7.982;2023-09-12T03:54:29;8.13;;;6.30;;
47365;SDS011;33105;47.964;7.982;2023-09-12T03:57:30;12.05;;;6.43;;
47365;SDS011;33105;47.964;7.982;2023-09-12T04:00:32;8.85;;;6.93;;
47365;SDS011;33105;47.964;7.982;2023-09-12T04:03:33;7.25;;;6.55;;
47365;SDS011;33105;47.964;7.982;2023-09-12T04:06:35;9.35;;;6.70;;
47365;SDS011;33105;47.964;7.982;2023-09-12T04:09:36;9.25;;;6.60;;
47365;SDS011;33105;47.964;7.982;2023-09-12T04:12:37;8.27;;;6.88;;
47365;SDS011;33105;47.964;7.982;2023-09-12T04:15:38;8.15;;;6.45;;
47365;SDS011;33105;47.964;7.982;2023-09-12T04:18:40;12.50;;;7.13;;
47365;SDS011;33105;47.964;7.982;2023-09-12T04:21:41;12.68;;;6.93;;
47365;SDS011;33105;47.964;7.982;2023-09-12T04:24:42;8.13;;;6.38;;
47365;SDS011;33105;47.964;7.982;2023-09-12T04:27:44;8.95;;;6.45;;
47365;SDS011;33105;47.964;7.982;2023-09-12T04:30:45;9.05;;;6.18;;
47365;SDS011;33105;47.964;7.982;2023-09-12T04:33:47;9.07;;;6.60;;
47365;SDS011;33105;47.964;7.982;2023-09-12T04:36:48;7.25;;;6.20;;
47365;SDS011;33105;47.964;7.982;2023-09-12T04:39:49;7.45;;;6.03;;
47365;SDS011;33105;47.964;7.982;2023-09-12T04:42:50;7.13;;;6.43;;
47365;SDS011;33105;47.964;7.982;2023-09-12T04:45:52;8.68;;;6.38;;
47365;SDS011;33105;47.964;7.982;2023-09-12T04:48:53;9.18;;;6.50;;
47365;SDS011;33105;47.964;7.982;2023-09-12T04:51:54;10.32;;;6.93;;
47365;SDS011;33105;47.964;7.982;2023-09-12T04:54:56;11.60;;;6.00;;
47365;SDS011;33105;47.964;7.982;2023-09-12T04:57:57;12.30;;;6.55;;
47365;SDS011;33105;47.964;7.982;2023-09-12T05:00:58;9.18;;;6.57;;
47365;SDS011;33105;47.964;7.982;2023-09-12T05:03:59;8.68;;;6.90;;
47365;SDS011;33105;47.964;7.982;2023-09-12T05:07:01;8.48;;;6.57;;
47365;SDS011;33105;47.964;7.982;2023-09-12T05:10:03;9.98;;;6.93;;
47365;SDS011;33105;47.964;7.982;2023-09-12T05:13:05;10.65;;;6.70;;
47365;SDS011;33105;47.964;7.982;2023-09-12T05:16:07;10.77;;;7.05;;
47365;SDS011;33105;47.964;7.982;2023-09-12T05:19:08;8.07;;;6.85;;
47365;SDS011;33105;47.964;7.982;2023-09-12T05:22:09;9.77;;;7.03;;
47365;SDS011;33105;47.964;7.982;2023-09-12T05:25:10;10.63;;;6.43;;
47365;SDS011;33105;47.964;7.982;2023-09-12T05:28:12;9.10;;;6.65;;
47365;SDS011;33105;47.964;7.982;2023-09-12T05:31:17;10.27;;;7.22;;
47365;SDS011;33105;47.964;7.982;2023-09-12T05:34:18;9.15;;;7.07;;
47365;SDS011;33105;47.964;7.982;2023-09-12T05:37:19;10.18;;;7.43;;
47365;SDS011;33105;47.964;7.982;2023-09-12T05:40:21;8.82;;;7.13;;
47365;SDS011;33105;47.964;7.982;2023-09-12T05:43:23;10.23;;;7.22;;
47365;SDS011;33105;47.964;7.982;2023-09-12T05:46:24;9.55;;;6.95;;
47365;SDS011;33105;47.964;7.982;2023-09-12T05:49:26;10.40;;;7.80;;
47365;SDS011;33105;47.964;7.982;2023-09-12T05:52:27;14.20;;;7.78;;
47365;SDS011;33105;47.964;7.982;2023-09-12T05:55:28;9.75;;;7.43;;
47365;SDS011;33105;47.964;7.982;2023-09-12T05:58:30;8.80;;;7.18;;
47365;SDS011;33105;47.964;7.982;2023-09-12T06:01:31;9.73;;;7.45;;
47365;SDS011;33105;47.964;7.982;2023-09-12T06:04:32;7.57;;;6.72;;
47365;SDS011;33105;47.964;7.982;2023-09-12T06:07:33;12.45;;;7.28;;
47365;SDS011;33105;47.964;7.982;2023-09-12T06:10:35;10.45;;;7.10;;
47365;SDS011;33105;47.964;7.982;2023-09-12T06:13:36;8.88;;;7.15;;
47365;SDS011;33105;47.964;7.982;2023-09-12T06:16:38;10.50;;;7.10;;
47365;SDS011;33105;47.964;7.982;2023-09-12T06:19:39;10.15;;;6.53;;
47365;SDS011;33105;47.964;7.982;2023-09-12T06:22:40;7.78;;;6.95;;
47365;SDS011;33105;47.964;7.982;2023-09-12T06:25:41;12.80;;;7.05;;
47365;SDS011;33105;47.964;7.982;2023-09-12T06:28:43;7.40;;;6.50;;
47365;SDS011;33105;47.964;7.982;2023-09-12T06:31:44;9.10;;;7.25;;
47365;SDS011;33105;47.964;7.982;2023-09-12T06:34:45;11.70;;;7.13;;
47365;SDS011;33105;47.964;7.982;2023-09-12T06:37:48;9.68;;;7.05;;
47365;SDS011;33105;47.964;7.982;2023-09-12T06:40:49;9.07;;;7.05;;
47365;SDS011;33105;47.964;7.982;2023-09-12T06:43:50;8.10;;;6.80;;
47365;SDS011;33105;47.964;7.982;2023-09-12T06:46:52;8.88;;;7.10;;
47365;SDS011;33105;47.964;7.982;2023-09-12T06:49:53;8.60;;;7.57;;
47365;SDS011;33105;47.964;7.982;2023-09-12T06:52:54;11.40;;;7.70;;
47365;SDS011;33105;47.964;7.982;2023-09-12T06:55:55;10.23;;;7.93;;
47365;SDS011;33105;47.964;7.982;2023-09-12T06:58:58;11.23;;;7.32;;
47365;SDS011;33105;47.964;7.982;2023-09-12T07:02:00;9.38;;;7.75;;
47365;SDS011;33105;47.964;7.982;2023-09-12T07:05:01;10.35;;;7.43;;
47365;SDS011;33105;47.964;7.982;2023-09-12T07:08:04;7.88;;;7.07;;
47365;SDS011;33105;47.964;7.982;2023-09-12T07:11:06;9.32;;;6.65;;
47365;SDS011;33105;47.964;7.982;2023-09-12T07:14:08;10.90;;;7.25;;
47365;SDS011;33105;47.964;7.982;2023-09-12T07:17:12;7.75;;;6.95;;
47365;SDS011;33105;47.964;7.982;2023-09-12T07:20:13;9.50;;;7.07;;
47365;SDS011;33105;47.964;7.982;2023-09-12T07:23:16;8.23;;;6.50;;
47365;SDS011;33105;47.964;7.982;2023-09-12T07:26:17;10.05;;;7.03;;
47365;SDS011;33105;47.964;7.982;2023-09-12T07:29:18;11.20;;;7.10;;
47365;SDS011;33105;47.964;7.982;2023-09-12T07:32:19;12.13;;;7.28;;
47365;SDS011;33105;47.964;7.982;2023-09-12T07:35:22;7.43;;;6.68;;
47365;SDS011;33105;47.964;7.982;2023-09-12T07:38:25;8.32;;;6.93;;
47365;SDS011;33105;47.964;7.982;2023-09-12T07:41:26;7.35;;;6.65;;
47365;SDS011;33105;47.964;7.982;2023-09-12T07:44:28;8.15;;;7.20;;
47365;SDS011;33105;47.964;7.982;2023-09-12T07:47:29;7.93;;;7.10;;
47365;SDS011;33105;47.964;7.982;2023-09-12T07:50:32;9.23;;;6.80;;
47365;SDS011;33105;47.964;7.982;2023-09-12T07:53:33;10.13;;;6.85;;
47365;SDS011;33105;47.964;7.982;2023-09-12T07:56:34;7.32;;;6.60;;
47365;SDS011;33105;47.964;7.982;2023-09-12T07:59:35;7.90;;;6.88;;
47365;SDS011;33105;47.964;7.982;2023-09-12T08:02:37;10.13;;;7.20;;
47365;SDS011;33105;47.964;7.982;2023-09-12T08:05:38;12.45;;;7.00;;
47365;SDS011;33105;47.964;7.982;2023-09-12T08:08:39;9.50;;;7.30;;
47365;SDS011;33105;47.964;7.982;2023-09-12T08:11:40;8.05;;;7.25;;
47365;SDS011;33105;47.964;7.982;2023-09-12T08:14:42;8.00;;;6.75;;
47365;SDS011;33105;47.964;7.982;2023-09-12T08:17:43;8.80;;;7.30;;
47365;SDS011;33105;47.964;7.982;2023-09-12T08:20:44;8.13;;;6.88;;
47365;SDS011;33105;47.964;7.982;2023-09-12T08:23:45;8.05;;;7.07;;
47365;SDS011;33105;47.964;7.982;2023-09-12T08:26:47;11.35;;;6.82;;
47365;SDS011;33105;47.964;7.982;2023-09-12T08:29:48;11.98;;;7.15;;
47365;SDS011;33105;47.964;7.982;2023-09-12T08:32:49;8.43;;;6.68;;
47365;SDS011;33105;47.964;7.982;2023-09-12T08:35:50;16.20;;;6.93;;
47365;SDS011;33105;47.964;7.982;2023-09-12T08:38:51;10.57;;;6.85;;
47365;SDS011;33105;47.964;7.982;2023-09-12T08:41:53;9.38;;;6.65;;
47365;SDS011;33105;47.964;7.982;2023-09-12T08:44:55;9.45;;;7.22;;
47365;SDS011;33105;47.964;7.982;2023-09-12T08:47:56;7.47;;;6.45;;
47365;SDS011;33105;47.964;7.982;2023-09-12T08:51:04;8.65;;;6.65;;
47365;SDS011;33105;47.964;7.982;2023-09-12T08:54:08;6.88;;;6.15;;
47365;SDS011;33105;47.964;7.982;2023-09-12T08:57:10;8.18;;;6.85;;
47365;SDS011;33105;47.964;7.982;2023-09-12T09:00:12;8.82;;;7.15;;
47365;SDS011;33105;47.964;7.982;2023-09-12T09:03:14;10.98;;;7.63;;
47365;SDS011;33105;47.964;7.982;2023-09-12T09:06:16;10.70;;;7.07;;
47365;SDS011;33105;47.964;7.982;2023-09-12T09:09:20;11.73;;;7.93;;
47365;SDS011;33105;47.964;7.982;2023-09-12T09:12:22;10.45;;;7.65;;
47365;SDS011;33105;47.964;7.982;2023-09-12T09:15:24;10.48;;;7.75;;
47365;SDS011;33105;47.964;7.982;2023-09-12T09:18:26;9.73;;;7.38;;
47365;SDS011;33105;47.964;7.982;2023-09-12T09:21:28;10.07;;;7.18;;
47365;SDS011;33105;47.964;7.982;2023-09-12T09:24:32;8.00;;;6.60;;
47365;SDS011;33105;47.964;7.982;2023-09-12T09:27:33;7.55;;;6.20;;
47365;SDS011;33105;47.964;7.982;2023-09-12T09:30:39;5.63;;;5.13;;
47365;SDS011;33105;47.964;7.982;2023-09-12T09:33:44;9.77;;;5.60;;
47365;SDS011;33105;47.964;7.982;2023-09-12T09:36:53;8.40;;;5.15;;
47365;SDS011;33105;47.964;7.982;2023-09-12T09:39:55;8.10;;;5.47;;
47365;SDS011;33105;47.964;7.982;2023-09-12T09:43:00;6.20;;;5.60;;
47365;SDS011;33105;47.964;7.982;2023-09-12T09:46:02;7.93;;;5.25;;
47365;SDS011;33105;47.964;7.982;2023-09-12T09:49:04;6.45;;;5.13;;
47365;SDS011;33105;47.964;7.982;2023-09-12T09:52:07;8.82;;;5.50;;
47365;SDS011;33105;47.964;7.982;2023-09-12T09:55:12;6.47;;;5.00;;
47365;SDS011;33105;47.964;7.982;2023-09-12T09:58:15;6.82;;;4.60;;
47365;SDS011;33105;47.964;7.982;2023-09-12T10:01:21;7.88;;;4.70;;
47365;SDS011;33105;47.964;7.982;2023-09-12T10:04:24;5.97;;;4.65;;
47365;SDS011;33105;47.964;7.982;2023-09-12T10:07:28;9.10;;;5.07;;
47365;SDS011;33105;47.964;7.982;2023-09-12T10:10:34;7.63;;;4.50;;
47365;SDS011;33105;47.964;7.982;2023-09-12T10:13:37;6.28;;;4.63;;
47365;SDS011;33105;47.964;7.982;2023-09-12T10:16:48;9.40;;;5.00;;
47365;SDS011;33105;47.964;7.982;2023-09-12T10:19:54;5.40;;;4.50;;
47365;SDS011;33105;47.964;7.982;2023-09-12T10:23:03;8.25;;;4.60;;
47365;SDS011;33105;47.964;7.982;2023-09-12T10:26:12;12.05;;;3.92;;
47365;SDS011;33105;47.964;7.982;2023-09-12T10:29:14;7.55;;;4.85;;
47365;SDS011;33105;47.964;7.982;2023-09-12T10:32:16;8.20;;;4.63;;
47365;SDS011;33105;47.964;7.982;2023-09-12T10:35:19;8.20;;;3.80;;
47365;SDS011;33105;47.964;7.982;2023-09-12T10:38:21;10.38;;;4.72;;
47365;SDS011;33105;47.964;7.982;2023-09-12T10:41:28;10.45;;;4.20;;
47365;SDS011;33105;47.964;7.982;2023-09-12T10:44:30;6.38;;;4.40;;
47365;SDS011;33105;47.964;7.982;2023-09-12T10:47:32;11.40;;;4.60;;
47365;SDS011;33105;47.964;7.982;2023-09-12T10:50:35;6.57;;;4.03;;
47365;SDS011;33105;47.964;7.982;2023-09-12T10:53:36;7.63;;;3.97;;
47365;SDS011;33105;47.964;7.982;2023-09-12T10:56:38;9.40;;;4.15;;
47365;SDS011;33105;47.964;7.982;2023-09-12T11:06:30;9.38;;;3.97;;
47365;SDS011;33105;47.964;7.982;2023-09-12T11:09:31;7.32;;;3.85;;
47365;SDS011;33105;47.964;7.982;2023-09-12T11:12:36;6.25;;;3.95;;
47365;SDS011;33105;47.964;7.982;2023-09-12T11:15:37;3.92;;;3.50;;
47365;SDS011;33105;47.964;7.982;2023-09-12T11:19:18;6.50;;;4.13;;
47365;SDS011;33105;47.964;7.982;2023-09-12T11:22:27;7.15;;;4.10;;
47365;SDS011;33105;47.964;7.982;2023-09-12T11:25:31;8.13;;;4.10;;
47365;SDS011;33105;47.964;7.982;2023-09-12T11:28:34;5.25;;;3.78;;
47365;SDS011;33105;47.964;7.982;2023-09-12T11:31:35;5.75;;;3.35;;
47365;SDS011;33105;47.964;7.982;2023-09-12T11:34:43;5.97;;;3.65;;
47365;SDS011;33105;47.964;7.982;2023-09-12T11:37:48;10.07;;;4.00;;
47365;SDS011;33105;47.964;7.982;2023-09-12T11:40:51;11.65;;;4.03;;
47365;SDS011;33105;47.964;7.982;2023-09-12T11:43:52;5.68;;;3.75;;
47365;SDS011;33105;47.964;7.982;2023-09-12T11:46:54;6.72;;;3.85;;
47365;SDS011;33105;47.964;7.982;2023-09-12T11:49:55;6.82;;;3.80;;
47365;SDS011;33105;47.964;7.982;2023-09-12T11:56:01;6.43;;;3.85;;
47365;SDS011;33105;47.964;7.982;2023-09-12T11:59:02;5.80;;;3.50;;
47365;SDS011;33105;47.964;7.982;2023-09-12T12:02:07;4.90;;;4.10;;
47365;SDS011;33105;47.964;7.982;2023-09-12T12:05:09;4.35;;;3.95;;
47365;SDS011;33105;47.964;7.982;2023-09-12T12:08:11;5.88;;;3.85;;
47365;SDS011;33105;47.964;7.982;2023-09-12T12:11:12;5.85;;;3.80;;
47365;SDS011;33105;47.964;7.982;2023-09-12T12:14:14;5.55;;;4.07;;
47365;SDS011;33105;47.964;7.982;2023-09-12T12:17:16;4.70;;;3.88;;
47365;SDS011;33105;47.964;7.982;2023-09-12T12:20:17;8.25;;;4.07;;
47365;SDS011;33105;47.964;7.982;2023-09-12T12:23:19;9.60;;;4.60;;
47365;SDS011;33105;47.964;7.982;2023-09-12T12:26:20;8.02;;;3.60;;
47365;SDS011;33105;47.964;7.982;2023-09-12T12:29:22;6.25;;;4.15;;
47365;SDS011;33105;47.964;7.982;2023-09-12T12:32:23;9.18;;;3.72;;
47365;SDS011;33105;47.964;7.982;2023-09-12T12:35:24;4.20;;;3.58;;
47365;SDS011;33105;47.964;7.982;2023-09-12T12:38:25;9.20;;;4.55;;
47365;SDS011;33105;47.964;7.982;2023-09-12T12:41:27;6.55;;;3.60;;
47365;SDS011;33105;47.964;7.982;2023-09-12T12:44:33;6.28;;;4.22;;
47365;SDS011;33105;47.964;7.982;2023-09-12T12:47:41;6.95;;;3.95;;
47365;SDS011;33105;47.964;7.982;2023-09-12T12:50:43;4.93;;;3.97;;
47365;SDS011;33105;47.964;7.982;2023-09-12T12:53:48;5.00;;;4.30;;
47365;SDS011;33105;47.964;7.982;2023-09-12T12:56:54;7.50;;;4.57;;
47365;SDS011;33105;47.964;7.982;2023-09-12T12:59:55;10.88;;;4.40;;
47365;SDS011;33105;47.964;7.982;2023-09-12T13:02:57;6.28;;;4.18;;
47365;SDS011;33105;47.964;7.982;2023-09-12T13:05:58;6.93;;;4.38;;
47365;SDS011;33105;47.964;7.982;2023-09-12T13:08:59;8.35;;;4.55;;
47365;SDS011;33105;47.964;7.982;2023-09-12T13:12:05;5.18;;;4.20;;
47365;SDS011;33105;47.964;7.982;2023-09-12T13:15:07;5.72;;;4.20;;
47365;SDS011;33105;47.964;7.982;2023-09-12T13:18:09;9.32;;;4.05;;
47365;SDS011;33105;47.964;7.982;2023-09-12T13:21:11;7.78;;;4.20;;
47365;SDS011;33105;47.964;7.982;2023-09-12T13:24:12;7.47;;;3.92;;
47365;SDS011;33105;47.964;7.982;2023-09-12T13:27:14;6.13;;;4.18;;
47365;SDS011;33105;47.964;7.982;2023-09-12T13:30:15;10.80;;;4.70;;
47365;SDS011;33105;47.964;7.982;2023-09-12T13:33:16;6.88;;;4.78;;
47365;SDS011;33105;47.964;7.982;2023-09-12T13:36:17;6.25;;;4.32;;
47365;SDS011;33105;47.964;7.982;2023-09-12T13:39:18;6.70;;;4.25;;
47365;SDS011;33105;47.964;7.982;2023-09-12T13:42:20;6.75;;;4.35;;
47365;SDS011;33105;47.964;7.982;2023-09-12T13:45:21;6.53;;;4.07;;
47365;SDS011;33105;47.964;7.982;2023-09-12T13:48:23;6.63;;;4.00;;
47365;SDS011;33105;47.964;7.982;2023-09-12T13:51:24;8.65;;;4.00;;
47365;SDS011;33105;47.964;7.982;2023-09-12T13:54:25;6.93;;;3.65;;
47365;SDS011;33105;47.964;7.982;2023-09-12T13:57:26;4.40;;;3.47;;
47365;SDS011;33105;47.964;7.982;2023-09-12T14:00:27;7.25;;;3.78;;
47365;SDS011;33105;47.964;7.982;2023-09-12T14:03:29;6.97;;;4.03;;
47365;SDS011;33105;47.964;7.982;2023-09-12T14:06:31;7.07;;;4.03;;
47365;SDS011;33105;47.964;7.982;2023-09-12T14:09:33;4.20;;;3.72;;
47365;SDS011;33105;47.964;7.982;2023-09-12T14:12:34;4.75;;;3.97;;
47365;SDS011;33105;47.964;7.982;2023-09-12T14:15:36;6.97;;;4.13;;
47365;SDS011;33105;47.964;7.982;2023-09-12T14:18:37;8.10;;;4.18;;
47365;SDS011;33105;47.964;7.982;2023-09-12T14:21:38;8.02;;;3.80;;
47365;SDS011;33105;47.964;7.982;2023-09-12T14:24:39;7.55;;;4.10;;
47365;SDS011;33105;47.964;7.982;2023-09-12T14:27:41;6.55;;;3.97;;
47365;SDS011;33105;47.964;7.982;2023-09-12T14:30:44;7.05;;;3.70;;
47365;SDS011;33105;47.964;7.982;2023-09-12T14:33:46;3.78;;;3.38;;
47365;SDS011;33105;47.964;7.982;2023-09-12T14:36:47;5.47;;;3.85;;
47365;SDS011;33105;47.964;7.982;2023-09-12T14:39:49;3.75;;;3.38;;
47365;SDS011;33105;47.964;7.982;2023-09-12T14:42:50;5.82;;;3.72;;
47365;SDS011;33105;47.964;7.982;2023-09-12T14:45:51;5.10;;;3.30;;
47365;SDS011;33105;47.964;7.982;2023-09-12T14:48:52;7.90;;;3.22;;
47365;SDS011;33105;47.964;7.982;2023-09-12T14:51:54;4.85;;;2.97;;
47365;SDS011;33105;47.964;7.982;2023-09-12T14:54:55;3.63;;;3.33;;
47365;SDS011;33105;47.964;7.982;2023-09-12T14:57:58;5.45;;;3.20;;
47365;SDS011;33105;47.964;7.982;2023-09-12T15:01:00;6.38;;;3.10;;
47365;SDS011;33105;47.964;7.982;2023-09-12T15:04:01;7.65;;;3.28;;
47365;SDS011;33105;47.964;7.982;2023-09-12T15:07:02;3.35;;;3.05;;
47365;SDS011;33105;47.964;7.982;2023-09-12T15:10:04;4.35;;;2.88;;
47365;SDS011;33105;47.964;7.982;2023-09-12T15:13:06;3.50;;;2.88;;
47365;SDS011;33105;47.964;7.982;2023-09-12T15:16:07;3.35;;;2.90;;
47365;SDS011;33105;47.964;7.982;2023-09-12T15:19:08;5.03;;;3.10;;
47365;SDS011;33105;47.964;7.982;2023-09-12T15:22:09;4.70;;;2.65;;
47365;SDS011;33105;47.964;7.982;2023-09-12T15:25:11;3.88;;;3.00;;
47365;SDS011;33105;47.964;7.982;2023-09-12T15:28:12;6.38;;;2.83;;
47365;SDS011;33105;47.964;7.982;2023-09-12T15:31:13;8.98;;;3.30;;
47365;SDS011;33105;47.964;7.982;2023-09-12T15:34:14;4.25;;;3.03;;
47365;SDS011;33105;47.964;7.982;2023-09-12T15:37:15;5.30;;;3.10;;
47365;SDS011;33105;47.964;7.982;2023-09-12T15:40:17;7.28;;;3.58;;
47365;SDS011;33105;47.964;7.982;2023-09-12T15:43:18;4.80;;;2.90;;
47365;SDS011;33105;47.964;7.982;2023-09-12T15:46:19;5.75;;;3.08;;
47365;SDS011;33105;47.964;7.982;2023-09-12T15:49:21;11.90;;;3.20;;
47365;SDS011;33105;47.964;7.982;2023-09-12T15:52:22;6.57;;;3.60;;
47365;SDS011;33105;47.964;7.982;2023-09-12T15:55:23;3.15;;;2.85;;
47365;SDS011;33105;47.964;7.982;2023-09-12T15:58:25;5.88;;;3.40;;
47365;SDS011;33105;47.964;7.982;2023-09-12T16:01:29;4.30;;;3.33;;
47365;SDS011;33105;47.964;7.982;2023-09-12T16:04:31;3.70;;;3.40;;
47365;SDS011;33105;47.964;7.982;2023-09-12T16:07:32;6.57;;;3.55;;
47365;SDS011;33105;47.964;7.982;2023-09-12T16:10:34;7.93;;;4.18;;
47365;SDS011;33105;47.964;7.982;2023-09-12T16:13:35;8.63;;;4.18;;
47365;SDS011;33105;47.964;7.982;2023-09-12T16:16:36;8.57;;;3.75;;
47365;SDS011;33105;47.964;7.982;2023-09-12T16:19:37;4.82;;;4.10;;
47365;SDS011;33105;47.964;7.982;2023-09-12T16:22:39;6.82;;;4.03;;
47365;SDS011;33105;47.964;7.982;2023-09-12T16:25:41;11.40;;;4.38;;
47365;SDS011;33105;47.964;7.982;2023-09-12T16:28:42;4.97;;;3.42;;
47365;SDS011;33105;47.964;7.982;2023-09-12T16:31:43;4.65;;;3.75;;
47365;SDS011;33105;47.964;7.982;2023-09-12T16:34:45;5.05;;;3.70;;
47365;SDS011;33105;47.964;7.982;2023-09-12T16:37:47;4.13;;;3.63;;
47365;SDS011;33105;47.964;7.982;2023-09-12T16:40:48;4.82;;;3.65;;
47365;SDS011;33105;47.964;7.982;2023-09-12T16:43:49;6.97;;;3.42;;
47365;SDS011;33105;47.964;7.982;2023-09-12T16:46:51;6.22;;;3.33;;
47365;SDS011;33105;47.964;7.982;2023-09-12T16:49:52;5.00;;;3.22;;
47365;SDS011;33105;47.964;7.982;2023-09-12T16:52:53;5.25;;;3.58;;
47365;SDS011;33105;47.964;7.982;2023-09-12T16:55:55;9.55;;;4.00;;
47365;SDS011;33105;47.964;7.982;2023-09-12T16:58:59;7.22;;;3.33;;
47365;SDS011;33105;47.964;7.982;2023-09-12T17:02:01;6.05;;;3.42;;
47365;SDS011;33105;47.964;7.982;2023-09-12T17:05:02;8.55;;;3.92;;
47365;SDS011;33105;47.964;7.982;2023-09-12T17:08:04;5.82;;;4.30;;
47365;SDS011;33105;47.964;7.982;2023-09-12T17:11:06;4.97;;;3.80;;
47365;SDS011;33105;47.964;7.982;2023-09-12T17:14:07;7.03;;;4.05;;
47365;SDS011;33105;47.964;7.982;2023-09-12T17:17:08;5.10;;;3.97;;
47365;SDS011;33105;47.964;7.982;2023-09-12T17:20:10;8.32;;;4.10;;
47365;SDS011;33105;47.964;7.982;2023-09-12T17:23:11;9.20;;;3.75;;
47365;SDS011;33105;47.964;7.982;2023-09-12T17:26:12;10.90;;;4.22;;
47365;SDS011;33105;47.964;7.982;2023-09-12T17:29:13;7.35;;;4.22;;
47365;SDS011;33105;47.964;7.982;2023-09-12T17:32:15;7.00;;;3.97;;
47365;SDS011;33105;47.964;7.982;2023-09-12T17:35:17;9.02;;;3.97;;
47365;SDS011;33105;47.964;7.982;2023-09-12T17:38:21;4.43;;;4.03;;
47365;SDS011;33105;47.964;7.982;2023-09-12T17:41:23;6.60;;;4.05;;
47365;SDS011;33105;47.964;7.982;2023-09-12T17:44:24;6.13;;;4.03;;
47365;SDS011;33105;47.964;7.982;2023-09-12T17:47:28;8.05;;;4.53;;
47365;SDS011;33105;47.964;7.982;2023-09-12T17:50:29;7.57;;;4.38;;
47365;SDS011;33105;47.964;7.982;2023-09-12T17:53:30;7.43;;;4.40;;
47365;SDS011;33105;47.964;7.982;2023-09-12T17:56:32;10.13;;;4.38;;
47365;SDS011;33105;47.964;7.982;2023-09-12T17:59:33;5.80;;;4.35;;
47365;SDS011;33105;47.964;7.982;2023-09-12T18:02:34;13.75;;;5.38;;
47365;SDS011;33105;47.964;7.982;2023-09-12T18:05:36;5.97;;;4.78;;
47365;SDS011;33105;47.964;7.982;2023-09-12T18:08:38;8.50;;;4.90;;
47365;SDS011;33105;47.964;7.982;2023-09-12T18:11:39;5.50;;;4.50;;
47365;SDS011;33105;47.964;7.982;2023-09-12T18:14:40;9.13;;;4.32;;
47365;SDS011;33105;47.964;7.982;2023-09-12T18:17:41;8.85;;;4.88;;
47365;SDS011;33105;47.964;7.982;2023-09-12T18:20:43;13.73;;;6.13;;
47365;SDS011;33105;47.964;7.982;2023-09-12T18:23:44;9.55;;;5.13;;
47365;SDS011;33105;47.964;7.982;2023-09-12T18:26:45;11.48;;;5.25;;
47365;SDS011;33105;47.964;7.982;2023-09-12T18:29:47;7.15;;;4.45;;
47365;SDS011;33105;47.964;7.982;2023-09-12T18:32:48;8.80;;;4.70;;
47365;SDS011;33105;47.964;7.982;2023-09-12T18:35:49;7.78;;;4.47;;
47365;SDS011;33105;47.964;7.982;2023-09-12T18:38:50;4.65;;;4.03;;